Time;durP1;ratioP1;P1;durP2;ratioP2;P2;SDS_P1;SDS_P2;PMS_P1;PMS_P2;Temp;Humidity;BMP_temperature;BMP_pressure;BME280_temperature;BME280_humidity;BME280_pressure;Samples;Min_cycle;Max_cycle;Signal;HPM_P1;HPM_P2
2022/11/05 00:10:04;;;;;;;3.65;2.22;;;9.10;77.00;;;;;;5075530;28;20063;-18
2022/11/05 00:17:58;;;;;;;3.72;1.90;;;9.20;76.60;;;;;;5075048;28;20039;-18
2022/11/05 00:20:24;;;;;;;2.92;1.85;;;9.20;76.50;;;;;;5074741;28;20036;-16
2022/11/05 00:25:53;;;;;;;1.93;1.70;;;9.20;76.40;;;;;;5074753;28;20071;-18
2022/11/05 00:28:19;;;;;;;2.78;1.65;;;9.20;76.40;;;;;;5073330;28;20427;-16
2022/11/05 00:30:45;;;;;;;2.78;1.60;;;9.10;76.40;;;;;;5074609;28;20028;-16
2022/11/05 00:33:11;;;;;;;2.08;1.50;;;9.10;76.50;;;;;;5074011;28;20385;-16
2022/11/05 00:35:37;;;;;;;2.00;1.50;;;9.00;76.50;;;;;;5074347;28;20032;-16
2022/11/05 00:38:03;;;;;;;2.33;1.55;;;9.00;76.60;;;;;;5073079;28;20032;-18
2022/11/05 00:40:29;;;;;;;1.95;1.45;;;8.90;76.60;;;;;;5074264;28;20024;-16
2022/11/05 00:45:39;;;;;;;1.60;1.30;;;8.80;76.70;;;;;;5074411;28;20392;-17
2022/11/05 00:50:50;;;;;;;2.15;1.58;;;8.60;77.00;;;;;;5074095;28;20031;-18
2022/11/05 00:53:16;;;;;;;2.25;1.50;;;8.40;77.10;;;;;;5074285;28;20420;-18
2022/11/05 00:55:44;;;;;;;1.85;1.65;;;8.40;77.30;;;;;;5074024;28;20017;-16
2022/11/05 00:58:28;;;;;;;2.15;1.85;;;8.30;77.40;;;;;;5074245;28;20032;-18
2022/11/05 01:00:56;;;;;;;2.75;1.70;;;8.20;77.60;;;;;;5073623;28;20405;-14
2022/11/05 01:03:25;;;;;;;3.13;1.63;;;8.10;77.70;;;;;;5074146;28;20104;-17
2022/11/05 01:05:53;;;;;;;2.10;1.90;;;8.10;78.00;;;;;;5073751;28;20029;-15
2022/11/05 01:08:21;;;;;;;5.35;2.33;;;8.00;78.20;;;;;;5073749;28;20028;-16
2022/11/05 01:10:51;;;;;;;3.38;2.30;;;7.90;78.40;;;;;;5073429;28;20036;-16
2022/11/05 01:13:19;;;;;;;2.13;1.70;;;7.90;78.50;;;;;;5073967;28;20036;-16
2022/11/05 01:15:45;;;;;;;3.70;2.45;;;7.90;78.50;;;;;;5073873;28;20063;-17
2022/11/05 01:18:13;;;;;;;6.50;2.00;;;7.90;78.70;;;;;;5073895;28;20028;-17
2022/11/05 01:20:39;;;;;;;3.47;2.17;;;7.80;78.60;;;;;;5073689;28;20020;-16
2022/11/05 01:23:05;;;;;;;2.65;2.00;;;7.80;78.80;;;;;;5073608;28;20104;-16
2022/11/05 01:25:31;;;;;;;2.63;2.10;;;7.80;78.80;;;;;;5073781;28;20115;-15
2022/11/05 01:27:57;;;;;;;2.85;1.90;;;7.70;79.00;;;;;;5073449;28;20559;-17
2022/11/05 01:30:22;;;;;;;3.38;2.30;;;7.70;79.10;;;;;;5073596;28;20032;-16
2022/11/05 01:32:48;;;;;;;4.32;2.45;;;7.70;79.10;;;;;;5073008;28;20067;-16
2022/11/05 01:35:16;;;;;;;2.80;2.25;;;7.70;79.20;;;;;;5073014;28;20016;-16
2022/11/05 01:37:43;;;;;;;3.20;2.08;;;7.70;79.20;;;;;;5073305;28;20574;-15
2022/11/05 01:40:15;;;;;;;3.35;2.20;;;7.70;79.40;;;;;;5073339;28;20020;-14
2022/11/05 01:42:41;;;;;;;3.78;2.28;;;7.70;79.40;;;;;;5073295;28;20028;-15
2022/11/05 01:45:12;;;;;;;4.55;2.72;;;7.70;79.20;;;;;;5072956;28;20032;-17
2022/11/05 01:47:47;;;;;;;2.83;2.22;;;7.60;79.40;;;;;;5073148;28;20484;-14
2022/11/05 01:51:00;;;;;;;4.97;2.53;;;7.60;79.50;;;;;;5073505;28;20029;-17
2022/11/05 01:53:35;;;;;;;5.72;2.88;;;7.60;79.60;;;;;;5050926;28;20056;-15
2022/11/05 01:56:13;;;;;;;4.85;2.90;;;7.50;79.50;;;;;;5051069;28;20040;-15
2022/11/05 01:59:08;;;;;;;3.38;2.15;;;7.60;79.60;;;;;;5065670;28;20504;-17
2022/11/05 02:01:34;;;;;;;4.70;3.08;;;7.70;79.60;;;;;;5050814;28;20033;-17
2022/11/05 02:04:04;;;;;;;4.82;2.42;;;7.70;79.90;;;;;;5051173;28;20078;-15
2022/11/05 02:06:33;;;;;;;3.92;2.30;;;7.70;79.60;;;;;;5050907;28;20068;-16
2022/11/05 02:09:11;;;;;;;4.13;2.55;;;7.80;79.50;;;;;;5050660;28;20049;-16
2022/11/05 02:11:37;;;;;;;3.75;2.47;;;7.80;79.50;;;;;;5051211;28;20040;-16
2022/11/05 02:14:03;;;;;;;4.93;2.78;;;7.90;79.40;;;;;;5050771;28;20493;-17
2022/11/05 02:16:31;;;;;;;3.53;2.42;;;7.90;79.50;;;;;;5050686;28;20020;-16
2022/11/05 02:19:34;;;;;;;3.08;2.25;;;7.90;79.30;;;;;;5050562;28;20025;-16
2022/11/05 02:22:32;;;;;;;3.10;2.17;;;8.00;79.30;;;;;;5051066;28;20489;-16
2022/11/05 02:25:26;;;;;;;2.38;1.98;;;8.00;79.40;;;;;;5050700;28;20041;-15
2022/11/05 02:28:01;;;;;;;4.75;2.15;;;8.10;79.10;;;;;;5051157;28;20040;-17
2022/11/05 02:30:46;;;;;;;2.92;2.13;;;8.20;79.20;;;;;;5050829;28;20033;-16
2022/11/05 02:33:24;;;;;;;2.47;2.10;;;8.20;78.90;;;;;;5050526;28;20071;-17
2022/11/05 02:36:05;;;;;;;3.33;2.13;;;8.30;79.00;;;;;;5051040;28;20381;-16
2022/11/05 02:38:43;;;;;;;4.63;2.38;;;8.30;78.70;;;;;;5061484;28;20040;-16
2022/11/05 02:41:32;;;;;;;3.03;2.15;;;8.20;78.70;;;;;;5072518;28;20040;-16
2022/11/05 02:44:16;;;;;;;3.20;2.05;;;8.20;78.60;;;;;;5072950;28;20480;-16
2022/11/05 02:47:02;;;;;;;3.25;2.03;;;8.20;78.60;;;;;;5073071;28;20024;-15
2022/11/05 02:49:39;;;;;;;2.40;1.80;;;8.20;78.70;;;;;;5077043;28;20063;-15
2022/11/05 02:52:32;;;;;;;3.42;2.28;;;8.10;78.70;;;;;;5075104;28;20036;-16
2022/11/05 02:55:10;;;;;;;4.57;2.77;;;8.10;78.80;;;;;;5076404;28;20396;-17
2022/11/05 02:57:42;;;;;;;3.33;2.30;;;7.90;78.90;;;;;;5076281;28;20243;-16
2022/11/05 03:00:40;;;;;;;5.70;2.88;;;7.90;79.10;;;;;;5076390;28;20021;-18
2022/11/05 03:03:27;;;;;;;2.75;1.95;;;7.80;79.10;;;;;;5076373;28;20288;-16
2022/11/05 03:06:15;;;;;;;3.28;2.50;;;7.80;79.20;;;;;;5076528;28;20063;-16
2022/11/05 03:09:07;;;;;;;2.60;1.92;;;7.70;79.30;;;;;;5076700;28;20376;-17
2022/11/05 03:11:57;;;;;;;3.97;2.38;;;7.60;79.40;;;;;;5076548;28;20036;-16
2022/11/05 03:14:46;;;;;;;4.28;2.50;;;7.60;79.50;;;;;;5076004;28;20040;-15
2022/11/05 03:17:40;;;;;;;4.30;2.58;;;7.50;79.70;;;;;;5076562;28;20020;-17
2022/11/05 03:20:27;;;;;;;3.80;2.90;;;7.50;80.00;;;;;;5076813;28;20031;-17
2022/11/05 03:23:09;;;;;;;3.80;2.25;;;7.40;79.90;;;;;;5076012;28;20106;-17
2022/11/05 03:25:43;;;;;;;2.55;2.13;;;7.40;80.20;;;;;;5076101;28;20025;-18
2022/11/05 03:28:11;;;;;;;4.03;2.58;;;7.40;80.00;;;;;;5075937;28;20376;-17
2022/11/05 03:30:41;;;;;;;2.28;1.95;;;7.40;80.20;;;;;;5075531;28;20021;-18
2022/11/05 03:33:13;;;;;;;2.65;2.25;;;7.40;80.20;;;;;;5075182;28;20519;-18
2022/11/05 03:35:46;;;;;;;2.50;2.10;;;7.30;80.20;;;;;;5075610;28;20098;-17
2022/11/05 03:38:37;;;;;;;2.60;2.00;;;7.30;80.20;;;;;;5075577;28;20028;-18
2022/11/05 03:41:08;;;;;;;2.70;2.10;;;7.20;80.30;;;;;;5075384;28;20071;-17
2022/11/05 03:43:39;;;;;;;4.35;2.58;;;7.20;80.40;;;;;;5075810;28;20028;-16
2022/11/05 03:46:31;;;;;;;4.07;2.70;;;7.10;80.40;;;;;;5075665;28;20020;-17
2022/11/05 03:49:00;;;;;;;5.20;2.53;;;7.10;80.40;;;;;;5072446;28;20485;-16
2022/11/05 03:52:00;;;;;;;3.53;2.33;;;7.10;80.60;;;;;;5075460;28;20056;-17
2022/11/05 03:54:27;;;;;;;3.17;2.03;;;7.10;80.60;;;;;;5075474;28;20032;-17
2022/11/05 03:57:04;;;;;;;2.42;2.10;;;7.10;80.70;;;;;;5075268;28;20652;-17
2022/11/05 03:59:38;;;;;;;5.32;2.60;;;7.10;80.70;;;;;;5075975;28;20104;-17
2022/11/05 04:02:04;;;;;;;5.20;2.20;;;7.10;80.80;;;;;;5075308;28;20090;-18
2022/11/05 04:04:30;;;;;;;4.13;2.60;;;7.10;80.70;;;;;;5075252;28;20024;-18
2022/11/05 04:15:09;;;;;;;4.10;2.00;;;7.10;80.80;;;;;;5074841;28;20396;-17
2022/11/05 04:17:35;;;;;;;1.98;1.77;;;7.10;80.80;;;;;;5075008;28;20119;-18
2022/11/05 04:25:31;;;;;;;3.72;2.17;;;7.10;80.60;;;;;;5075220;28;20035;-16
2022/11/05 04:28:00;;;;;;;3.08;2.33;;;7.00;80.70;;;;;;5074538;28;20115;-17
2022/11/05 04:30:26;;;;;;;4.38;2.33;;;7.00;80.60;;;;;;5074382;28;20024;-18
2022/11/05 04:33:03;;;;;;;3.75;2.20;;;6.90;80.70;;;;;;5074129;28;20523;-17
2022/11/05 04:35:35;;;;;;;2.33;1.88;;;6.90;80.70;;;;;;5074425;28;20024;-15
2022/11/05 04:38:02;;;;;;;3.60;2.28;;;7.00;81.00;;;;;;5073182;28;20077;-17
2022/11/05 04:40:29;;;;;;;3.05;2.22;;;7.00;80.70;;;;;;5074297;28;20036;-17
2022/11/05 04:42:55;;;;;;;4.00;2.30;;;7.00;80.90;;;;;;5074315;28;20047;-17
2022/11/05 04:45:23;;;;;;;2.67;2.08;;;7.00;80.70;;;;;;5074681;28;20496;-17
2022/11/05 04:47:49;;;;;;;3.85;2.00;;;7.00;80.60;;;;;;5074517;28;20027;-16
2022/11/05 04:50:16;;;;;;;2.72;1.80;;;7.00;80.60;;;;;;5074424;28;20028;-18
2022/11/05 04:52:42;;;;;;;3.75;1.90;;;7.00;80.50;;;;;;5074463;28;20048;-17
2022/11/05 04:55:08;;;;;;;3.63;1.70;;;6.90;80.40;;;;;;5073854;28;20076;-17
2022/11/05 04:57:35;;;;;;;3.90;1.83;;;6.90;80.40;;;;;;5073966;28;20028;-18
2022/11/05 05:00:01;;;;;;;1.95;1.42;;;6.90;80.40;;;;;;5073828;28;20162;-18
2022/11/05 05:02:27;;;;;;;2.60;1.52;;;6.90;80.30;;;;;;5073875;28;20028;-18
2022/11/05 05:04:53;;;;;;;3.30;1.95;;;6.80;80.40;;;;;;5072388;28;20064;-17
2022/11/05 05:07:19;;;;;;;2.35;1.85;;;6.80;80.40;;;;;;5073834;28;20478;-16
2022/11/05 05:09:45;;;;;;;2.90;1.73;;;6.70;80.40;;;;;;5072087;28;20024;-16
2022/11/05 05:12:11;;;;;;;2.65;1.70;;;6.70;80.40;;;;;;5073662;28;20028;-17
2022/11/05 05:14:37;;;;;;;2.78;2.20;;;6.60;80.50;;;;;;5073854;28;20043;-18
2022/11/05 05:17:03;;;;;;;2.35;1.73;;;6.50;80.50;;;;;;5073311;28;20028;-18
2022/11/05 05:19:29;;;;;;;3.55;2.30;;;6.50;80.60;;;;;;5072383;28;20477;-18
2022/11/05 05:21:55;;;;;;;3.38;2.15;;;6.50;80.70;;;;;;5073750;28;20476;-18
2022/11/05 05:24:23;;;;;;;2.55;2.20;;;6.50;80.90;;;;;;5073728;28;20020;-15
2022/11/05 05:26:50;;;;;;;3.25;2.13;;;6.50;80.90;;;;;;5073562;28;20098;-15
2022/11/05 05:29:17;;;;;;;2.10;1.88;;;6.50;81.00;;;;;;5073449;28;20025;-18
2022/11/05 05:31:44;;;;;;;4.00;1.90;;;6.40;80.90;;;;;;5072928;28;20500;-16
2022/11/05 05:34:11;;;;;;;5.05;2.10;;;6.40;80.90;;;;;;5073360;28;20017;-16
2022/11/05 05:36:37;;;;;;;3.00;2.20;;;6.40;80.90;;;;;;5073642;28;20028;-18
2022/11/05 05:39:09;;;;;;;5.13;2.47;;;6.40;80.90;;;;;;5073375;28;20086;-15
2022/11/05 05:41:35;;;;;;;4.22;2.45;;;6.30;80.90;;;;;;5073594;28;20020;-18
2022/11/05 05:44:03;;;;;;;3.75;2.30;;;6.30;80.90;;;;;;5073249;28;20520;-16
2022/11/05 05:46:29;;;;;;;3.28;2.17;;;6.20;80.90;;;;;;5073375;28;20366;-17
2022/11/05 05:48:55;;;;;;;3.30;1.60;;;6.20;80.90;;;;;;5072915;28;20035;-17
2022/11/05 05:51:21;;;;;;;2.33;1.58;;;6.10;80.90;;;;;;5073116;28;20021;-18
2022/11/05 05:53:46;;;;;;;3.45;1.90;;;6.10;80.90;;;;;;5073435;28;20040;-17
2022/11/05 05:56:19;;;;;;;2.72;1.70;;;6.00;80.90;;;;;;5073411;28;20047;-17
2022/11/05 05:58:45;;;;;;;3.95;1.83;;;5.90;81.10;;;;;;5073433;28;20036;-17
2022/11/05 06:01:14;;;;;;;3.05;1.92;;;5.90;81.20;;;;;;5073225;28;20021;-18
2022/11/05 06:03:40;;;;;;;2.28;1.70;;;5.90;81.20;;;;;;5073360;28;20060;-18
2022/11/05 06:06:08;;;;;;;3.42;2.03;;;5.90;81.20;;;;;;5073237;28;20477;-17
2022/11/05 06:08:35;;;;;;;2.35;1.70;;;5.80;81.40;;;;;;5072961;28;20025;-17
2022/11/05 06:11:03;;;;;;;2.03;1.73;;;5.80;81.50;;;;;;5073224;28;20047;-16
2022/11/05 06:13:29;;;;;;;2.15;1.90;;;5.70;81.50;;;;;;5073230;28;20035;-18
2022/11/05 06:16:03;;;;;;;1.88;1.60;;;5.70;81.60;;;;;;5072867;28;20025;-16
2022/11/05 06:18:29;;;;;;;;;;;5.70;81.50;;;;;;5073607;28;20032;-15
2022/11/05 06:21:00;;;;;;;2.40;1.67;;;5.60;81.60;;;;;;5072975;28;19904;-16
2022/11/05 06:23:26;;;;;;;2.03;1.70;;;5.60;81.70;;;;;;5076843;28;20380;-16
2022/11/05 06:25:52;;;;;;;4.82;2.88;;;5.60;81.70;;;;;;5077201;28;20111;-16
2022/11/05 06:28:18;;;;;;;3.80;2.30;;;5.60;81.70;;;;;;5076790;28;20028;-18
2022/11/05 06:30:50;;;;;;;5.28;2.63;;;5.60;81.70;;;;;;5076713;28;20119;-17
2022/11/05 06:33:16;;;;;;;2.45;1.92;;;5.60;81.90;;;;;;5075412;28;20044;-16
2022/11/05 06:35:43;;;;;;;3.45;2.45;;;5.60;81.90;;;;;;5076631;28;20017;-17
2022/11/05 06:38:09;;;;;;;2.92;2.20;;;5.60;81.80;;;;;;5076708;28;20047;-16
2022/11/05 06:40:35;;;;;;;4.00;2.65;;;5.60;81.80;;;;;;5076579;28;20032;-17
2022/11/05 06:43:01;;;;;;;2.95;2.30;;;5.60;81.90;;;;;;5076624;28;20021;-16
2022/11/05 06:45:26;;;;;;;2.75;2.20;;;5.60;81.90;;;;;;5075234;28;20374;-16
2022/11/05 06:47:57;;;;;;;3.10;2.50;;;5.60;81.90;;;;;;5076817;28;20102;-17
2022/11/05 06:50:24;;;;;;;3.17;1.98;;;5.60;81.90;;;;;;5076537;28;20032;-17
2022/11/05 06:52:58;;;;;;;5.65;2.72;;;5.60;81.90;;;;;;5076420;28;20082;-17
2022/11/05 06:55:26;;;;;;;3.92;2.50;;;5.60;82.00;;;;;;5076703;28;20031;-18
2022/11/05 06:57:53;;;;;;;4.93;3.13;;;5.60;81.90;;;;;;5076628;28;20087;-17
2022/11/05 07:00:19;;;;;;;4.43;3.00;;;5.70;81.90;;;;;;5076302;28;20027;-17
2022/11/05 07:02:45;;;;;;;4.60;3.47;;;5.70;81.80;;;;;;5076228;28;20032;-15
2022/11/05 07:05:13;;;;;;;8.50;3.92;;;5.80;81.70;;;;;;5075628;28;20537;-16
2022/11/05 07:07:40;;;;;;;6.43;4.03;;;5.80;81.80;;;;;;5076294;28;20021;-18
2022/11/05 07:10:09;;;;;;;8.32;4.78;;;5.80;81.80;;;;;;5075978;28;20035;-16
2022/11/05 07:12:36;;;;;;;10.15;4.13;;;5.90;81.90;;;;;;5076260;28;20021;-17
2022/11/05 07:15:02;;;;;;;6.82;4.40;;;5.90;81.90;;;;;;5075981;28;20028;-15
2022/11/05 07:17:27;;;;;;;8.25;3.90;;;5.90;82.00;;;;;;5076711;28;20372;-17
2022/11/05 07:19:53;;;;;;;8.15;4.85;;;6.00;82.00;;;;;;5074639;28;20439;-18
2022/11/05 07:22:19;;;;;;;6.97;4.30;;;6.10;81.90;;;;;;5075795;28;20024;-17
2022/11/05 07:24:46;;;;;;;6.72;3.85;;;6.10;81.80;;;;;;5075728;28;20025;-18
2022/11/05 07:27:13;;;;;;;13.52;5.25;;;6.20;81.50;;;;;;5075753;28;20035;-18
2022/11/05 07:29:39;;;;;;;6.43;3.30;;;6.30;81.60;;;;;;5076004;28;20029;-16
2022/11/05 07:32:05;;;;;;;8.10;4.32;;;6.30;81.70;;;;;;5075440;28;20105;-19
2022/11/05 07:34:31;;;;;;;7.78;3.80;;;6.40;81.60;;;;;;5075377;28;20040;-18
2022/11/05 07:36:57;;;;;;;7.30;3.83;;;6.50;81.80;;;;;;5075595;28;20036;-18
2022/11/05 07:39:24;;;;;;;8.18;4.28;;;6.60;81.80;;;;;;5075776;28;20021;-16
2022/11/05 07:41:53;;;;;;;8.95;4.68;;;6.70;81.90;;;;;;5075498;28;20039;-18
2022/11/05 07:44:21;;;;;;;8.57;5.50;;;6.80;81.50;;;;;;5075773;28;20427;-16
2022/11/05 07:46:47;;;;;;;14.40;6.40;;;6.90;81.40;;;;;;5075439;28;20040;-17
2022/11/05 07:49:13;;;;;;;9.13;5.05;;;7.00;81.30;;;;;;5075335;28;20085;-18
2022/11/05 07:51:39;;;;;;;10.05;4.82;;;7.10;81.50;;;;;;5075253;28;20040;-16
2022/11/05 07:54:05;;;;;;;8.20;4.03;;;7.20;81.20;;;;;;5075314;28;20481;-17
2022/11/05 07:56:31;;;;;;;5.70;4.10;;;7.30;81.00;;;;;;5075409;28;20021;-18
2022/11/05 07:58:57;;;;;;;8.20;4.25;;;7.40;80.90;;;;;;5075265;28;20089;-16
2022/11/05 08:01:23;;;;;;;6.75;3.60;;;7.50;80.90;;;;;;5075339;28;20536;-16
2022/11/05 08:03:49;;;;;;;7.60;4.32;;;7.60;80.70;;;;;;5075378;28;20477;-18
2022/11/05 08:06:15;;;;;;;7.97;4.50;;;7.70;80.60;;;;;;5075328;28;20031;-17
2022/11/05 08:08:41;;;;;;;11.10;5.30;;;7.80;80.40;;;;;;5074912;28;20117;-18
2022/11/05 08:11:09;;;;;;;10.85;4.93;;;7.90;80.30;;;;;;5074902;28;20028;-16
2022/11/05 08:13:36;;;;;;;13.27;5.70;;;8.10;80.10;;;;;;5074842;28;20472;-18
2022/11/05 08:16:03;;;;;;;9.38;4.72;;;8.30;80.00;;;;;;5074750;28;20108;-16
2022/11/05 08:18:31;;;;;;;8.32;4.40;;;8.40;79.90;;;;;;5075026;28;20101;-18
2022/11/05 08:20:59;;;;;;;7.80;5.15;;;8.60;80.20;;;;;;5074503;28;20484;-17
2022/11/05 08:23:27;;;;;;;5.88;3.78;;;8.80;79.90;;;;;;5074967;28;20037;-18
2022/11/05 08:25:53;;;;;;;8.20;4.07;;;8.90;79.50;;;;;;5074619;28;20431;-16
2022/11/05 08:28:20;;;;;;;10.25;3.75;;;9.10;79.10;;;;;;5074559;28;20028;-16
2022/11/05 08:30:55;;;;;;;6.18;3.63;;;9.30;78.70;;;;;;5074957;28;20035;-15
2022/11/05 08:33:22;;;;;;;6.25;3.33;;;9.50;78.30;;;;;;5074246;28;20084;-15
2022/11/05 08:35:49;;;;;;;4.72;3.13;;;9.80;78.10;;;;;;5075207;28;20090;-18
2022/11/05 08:38:18;;;;;;;6.18;4.07;;;10.20;77.40;;;;;;5074708;28;20029;-17
2022/11/05 08:40:57;;;;;;;6.07;3.30;;;10.50;76.80;;;;;;5074639;28;20177;-17
2022/11/05 08:43:23;;;;;;;5.57;3.10;;;10.90;76.10;;;;;;5073654;28;20476;-17
2022/11/05 08:45:49;;;;;;;4.07;3.00;;;11.20;75.40;;;;;;5073666;28;20107;-16
2022/11/05 08:48:16;;;;;;;4.35;2.55;;;11.60;75.30;;;;;;5073028;28;20064;-18
2022/11/05 08:50:44;;;;;;;6.30;4.40;;;12.00;74.60;;;;;;5074728;28;20488;-15
2022/11/05 08:53:10;;;;;;;7.95;5.47;;;12.40;74.00;;;;;;5073879;28;20028;-17
2022/11/05 08:55:37;;;;;;;3.72;2.35;;;12.80;73.30;;;;;;5074361;28;20067;-15
2022/11/05 08:58:06;;;;;;;5.20;2.90;;;13.20;72.70;;;;;;5074344;28;20025;-17
2022/11/05 09:00:34;;;;;;;1.42;1.33;;;13.60;72.00;;;;;;5074312;28;20067;-18
2022/11/05 09:03:03;;;;;;;4.45;1.70;;;14.00;70.80;;;;;;5073679;28;20025;-17
2022/11/05 09:05:31;;;;;;;2.67;1.85;;;14.40;70.30;;;;;;5073837;28;20035;-17
2022/11/05 09:07:57;;;;;;;1.42;1.33;;;14.60;68.80;;;;;;5073770;28;20020;-17
2022/11/05 09:10:23;;;;;;;1.67;1.33;;;14.80;67.90;;;;;;5073836;28;20020;-16
2022/11/05 09:12:49;;;;;;;1.20;1.10;;;15.00;66.90;;;;;;5073525;28;20480;-15
2022/11/05 09:15:15;;;;;;;1.98;1.70;;;15.30;66.90;;;;;;5073421;28;20020;-17
2022/11/05 09:17:41;;;;;;;2.63;1.70;;;15.50;66.20;;;;;;5073590;28;20154;-17
2022/11/05 09:20:10;;;;;;;3.00;1.48;;;15.70;65.70;;;;;;5072373;28;20060;-16
2022/11/05 09:22:36;;;;;;;1.65;1.52;;;15.90;65.30;;;;;;5073546;28;20396;-16
2022/11/05 09:25:02;;;;;;;1.20;1.10;;;16.20;64.10;;;;;;5073313;28;20031;-15
2022/11/05 09:27:28;;;;;;;1.98;1.30;;;16.60;64.20;;;;;;5072262;28;20025;-17
2022/11/05 09:29:54;;;;;;;1.55;1.35;;;17.10;63.30;;;;;;5073767;28;20025;-16
2022/11/05 09:32:22;;;;;;;1.30;1.20;;;17.50;61.70;;;;;;5073034;28;20080;-15
2022/11/05 09:34:48;;;;;;;2.67;1.63;;;17.90;60.80;;;;;;5073186;28;20025;-15
2022/11/05 09:37:15;;;;;;;2.45;1.77;;;18.30;58.80;;;;;;5073660;28;20035;-16
2022/11/05 09:39:41;;;;;;;3.00;2.30;;;18.70;59.10;;;;;;5073750;28;20029;-16
2022/11/05 09:42:12;;;;;;;4.28;2.17;;;19.00;59.40;;;;;;5073594;28;20017;-17
2022/11/05 09:45:09;;;;;;;2.15;1.88;;;19.40;58.00;;;;;;5073412;28;20029;-15
2022/11/05 09:47:42;;;;;;;2.05;1.65;;;19.60;55.20;;;;;;5068767;28;20036;-17
2022/11/05 09:50:21;;;;;;;2.92;0.95;;;19.90;58.20;;;;;;5073551;28;20032;-15
2022/11/05 09:52:47;;;;;;;0.90;0.70;;;20.10;57.10;;;;;;5071706;28;20029;-16
2022/11/05 09:55:26;;;;;;;1.17;0.73;;;20.40;56.70;;;;;;5073091;28;20035;-15
2022/11/05 09:57:58;;;;;;;0.60;0.60;;;20.80;54.30;;;;;;5073126;28;20388;-15
2022/11/05 10:00:24;;;;;;;1.75;0.77;;;21.20;52.80;;;;;;5073157;28;20086;-15
2022/11/05 10:03:02;;;;;;;0.90;0.73;;;21.60;50.50;;;;;;5072779;28;20025;-15
2022/11/05 10:05:28;;;;;;;0.60;0.60;;;21.90;48.60;;;;;;5073708;28;20075;-15
2022/11/05 10:08:06;;;;;;;0.63;0.63;;;22.10;49.50;;;;;;5073368;28;20031;-15
2022/11/05 10:10:32;;;;;;;2.78;0.75;;;22.30;46.40;;;;;;5073644;28;20020;-15
2022/11/05 10:13:04;;;;;;;3.33;1.00;;;22.50;46.60;;;;;;5072999;28;20025;-15
2022/11/05 10:15:36;;;;;;;1.67;0.85;;;22.70;47.40;;;;;;5072929;28;20027;-15
2022/11/05 10:18:26;;;;;;;0.52;0.52;;;22.90;47.00;;;;;;5073324;28;20060;-14
2022/11/05 10:20:52;;;;;;;0.85;0.60;;;23.20;42.70;;;;;;5073069;28;20107;-15
2022/11/05 10:23:21;;;;;;;2.85;1.20;;;23.50;47.20;;;;;;5073489;28;20100;-14
2022/11/05 10:26:01;;;;;;;1.58;0.90;;;23.60;43.70;;;;;;5072863;28;20480;-15
2022/11/05 10:28:31;;;;;;;1.33;1.00;;;23.60;43.60;;;;;;5072854;28;20025;-15
2022/11/05 10:31:11;;;;;;;2.15;1.00;;;23.90;44.40;;;;;;5072921;28;20078;-16
2022/11/05 10:33:45;;;;;;;1.98;0.90;;;24.00;44.80;;;;;;5073277;28;20116;-14
2022/11/05 10:36:20;;;;;;;0.70;0.70;;;24.30;43.90;;;;;;5073188;28;20373;-14
2022/11/05 10:38:46;;;;;;;1.17;0.80;;;24.50;44.10;;;;;;5072803;28;20021;-15
2022/11/05 10:42:07;;;;;;;2.15;1.15;;;24.70;42.70;;;;;;5072769;28;20126;-15
2022/11/05 10:45:07;;;;;;;1.30;0.88;;;25.00;41.40;;;;;;5070739;28;20508;-15
2022/11/05 10:47:41;;;;;;;2.00;1.00;;;24.90;39.40;;;;;;5070878;28;20029;-15
2022/11/05 10:50:15;;;;;;;2.10;1.20;;;24.70;40.60;;;;;;5070572;28;20025;-14
2022/11/05 10:53:01;;;;;;;1.48;0.70;;;24.40;41.30;;;;;;5070790;28;20503;-14
2022/11/05 10:55:28;;;;;;;3.13;1.13;;;24.20;39.30;;;;;;5070532;28;20028;-15
2022/11/05 10:58:15;;;;;;;1.55;0.80;;;24.00;40.80;;;;;;5070708;28;20032;-16
2022/11/05 11:00:50;;;;;;;1.15;0.70;;;23.70;39.40;;;;;;5070444;28;20075;-15
2022/11/05 11:03:40;;;;;;;2.10;1.10;;;23.40;40.40;;;;;;5070978;28;20039;-15
2022/11/05 11:06:28;;;;;;;1.52;0.77;;;23.40;40.90;;;;;;5070430;28;20504;-14
2022/11/05 11:08:59;;;;;;;0.98;0.70;;;23.60;40.10;;;;;;5055983;28;20525;-15
2022/11/05 11:11:34;;;;;;;1.30;0.57;;;23.60;40.50;;;;;;5073937;28;20124;-15
2022/11/05 11:14:10;;;;;;;1.17;0.95;;;23.70;40.00;;;;;;5073914;28;20033;-15
2022/11/05 11:16:45;;;;;;;1.58;0.95;;;23.80;39.20;;;;;;5073811;28;20614;-15
2022/11/05 11:19:28;;;;;;;1.55;0.75;;;23.90;38.60;;;;;;5075356;28;20500;-21
2022/11/05 11:22:03;;;;;;;0.40;0.40;;;23.90;37.80;;;;;;5076260;28;20029;-16
2022/11/05 11:24:30;;;;;;;1.02;0.70;;;24.00;37.40;;;;;;5075792;28;20021;-16
2022/11/05 11:27:22;;;;;;;0.82;0.70;;;24.10;38.00;;;;;;5075949;28;20031;-14
2022/11/05 11:29:59;;;;;;;1.17;0.60;;;24.20;37.30;;;;;;5075802;28;20040;-15
2022/11/05 11:32:34;;;;;;;0.50;0.50;;;24.40;37.20;;;;;;5075726;28;20064;-15
2022/11/05 11:35:01;;;;;;;1.63;0.47;;;24.70;36.20;;;;;;5075569;28;20112;-15
2022/11/05 11:37:33;;;;;;;0.95;0.55;;;25.00;36.70;;;;;;5075954;28;20388;-15
2022/11/05 11:40:15;;;;;;;2.10;0.43;;;25.30;34.30;;;;;;5074805;28;20023;-14
2022/11/05 11:42:52;;;;;;;0.52;0.52;;;25.70;32.10;;;;;;5075512;28;20477;-14
2022/11/05 11:45:37;;;;;;;1.13;0.60;;;26.10;30.90;;;;;;5075841;28;20039;-14
2022/11/05 11:48:11;;;;;;;0.73;0.47;;;26.40;30.80;;;;;;5075478;28;20056;-15
2022/11/05 11:50:41;;;;;;;0.40;0.40;;;26.40;32.20;;;;;;5075405;28;20027;-14
2022/11/05 11:53:18;;;;;;;1.55;0.68;;;26.40;32.60;;;;;;5075328;28;20040;-15
2022/11/05 11:56:05;;;;;;;0.75;0.68;;;26.40;33.10;;;;;;5075216;28;20139;-15
2022/11/05 11:58:45;;;;;;;0.70;0.45;;;26.60;32.70;;;;;;5075217;28;20123;-15
2022/11/05 12:01:44;;;;;;;0.60;0.60;;;26.90;31.30;;;;;;5074872;28;20384;-15
2022/11/05 12:04:44;;;;;;;0.73;0.50;;;27.20;29.50;;;;;;5075788;28;20024;-15
2022/11/05 12:07:54;;;;;;;1.20;0.40;;;27.50;28.60;;;;;;5074892;28;20074;-15
2022/11/05 12:10:20;;;;;;;0.40;0.40;;;27.50;30.50;;;;;;5064786;28;20048;-15
2022/11/05 12:13:13;;;;;;;0.82;0.50;;;27.50;30.40;;;;;;5074985;28;20051;-15
2022/11/05 12:15:50;;;;;;;;;;;27.60;30.30;;;;;;5075525;28;20028;-15
2022/11/05 12:18:31;;;;;;;0.80;0.35;;;27.80;28.00;;;;;;5074939;28;19904;-15
2022/11/05 12:21:25;;;;;;;0.85;0.70;;;28.00;27.70;;;;;;5073499;28;20024;-15
2022/11/05 12:24:30;;;;;;;0.50;0.50;;;28.10;28.10;;;;;;5075002;28;20021;-15
2022/11/05 12:27:25;;;;;;;1.35;0.47;;;28.20;28.90;;;;;;5073394;28;20033;-15
2022/11/05 12:29:57;;;;;;;0.50;0.50;;;28.40;29.40;;;;;;5075022;28;20021;-15
2022/11/05 12:32:38;;;;;;;0.73;0.70;;;28.40;28.60;;;;;;5074403;28;20052;-15
2022/11/05 12:35:25;;;;;;;0.60;0.60;;;28.40;27.60;;;;;;5074352;28;20035;-16
2022/11/05 12:38:16;;;;;;;1.52;0.60;;;28.40;27.20;;;;;;5074435;28;20112;-15
2022/11/05 12:40:47;;;;;;;0.50;0.50;;;28.40;27.30;;;;;;5074443;28;20024;-14
2022/11/05 12:43:16;;;;;;;0.30;0.30;;;28.30;27.80;;;;;;5074717;28;20021;-15
2022/11/05 12:45:54;;;;;;;0.50;0.50;;;28.20;27.70;;;;;;5074493;28;20069;-15
2022/11/05 12:49:05;;;;;;;0.60;0.50;;;28.20;27.90;;;;;;5074288;28;20025;-15
2022/11/05 12:52:02;;;;;;;1.17;0.40;;;28.20;28.50;;;;;;5064032;28;20036;-15
2022/11/05 12:54:49;;;;;;;0.60;0.60;;;28.20;27.40;;;;;;5074476;28;20070;-15
2022/11/05 12:57:16;;;;;;;0.50;0.50;;;28.10;27.90;;;;;;5073993;28;20056;-15
2022/11/05 12:59:53;;;;;;;0.43;0.43;;;28.00;27.60;;;;;;5074797;28;20538;-15
2022/11/05 13:03:15;;;;;;;0.60;0.50;;;28.00;26.90;;;;;;5073873;28;20473;-15
2022/11/05 13:05:55;;;;;;;0.40;0.40;;;27.90;27.80;;;;;;5072681;28;20028;-15
2022/11/05 13:08:35;;;;;;;0.80;0.50;;;27.90;28.20;;;;;;5073967;28;20074;-15
2022/11/05 13:11:13;;;;;;;0.32;0.30;;;28.00;28.00;;;;;;5073650;28;20591;-15
2022/11/05 13:13:45;;;;;;;0.63;0.63;;;28.00;27.60;;;;;;5072344;28;20036;-15
2022/11/05 13:16:32;;;;;;;0.43;0.43;;;28.00;28.60;;;;;;5073996;28;20024;-15
2022/11/05 13:19:20;;;;;;;0.43;0.43;;;28.10;26.50;;;;;;5073701;28;20104;-15
2022/11/05 13:21:58;;;;;;;0.80;0.60;;;28.20;28.30;;;;;;5074573;28;20094;-15
2022/11/05 13:24:33;;;;;;;0.50;0.43;;;28.30;27.20;;;;;;5073614;28;20476;-15
2022/11/05 13:27:14;;;;;;;0.93;0.40;;;28.40;27.00;;;;;;5073658;28;20024;-14
2022/11/05 13:29:52;;;;;;;1.85;0.70;;;28.40;27.20;;;;;;5073443;28;20507;-15
2022/11/05 13:32:23;;;;;;;0.40;0.40;;;28.50;27.70;;;;;;5073096;28;20045;-15
2022/11/05 13:34:57;;;;;;;0.47;0.47;;;28.70;26.60;;;;;;5073338;28;20032;-15
2022/11/05 13:40:19;;;;;;;0.75;0.50;;;28.70;27.00;;;;;;5073710;28;20059;-16
2022/11/05 13:42:48;;;;;;;0.55;0.45;;;28.70;27.00;;;;;;5073667;28;20028;-15
2022/11/05 13:45:49;;;;;;;0.47;0.43;;;28.70;26.60;;;;;;5073334;28;20473;-15
2022/11/05 13:48:53;;;;;;;1.33;0.40;;;28.70;27.40;;;;;;5073388;28;20416;-15
2022/11/05 13:52:21;;;;;;;0.98;0.50;;;28.70;27.80;;;;;;5074132;28;20070;-15
2022/11/05 13:55:33;;;;;;;0.45;0.45;;;28.90;28.20;;;;;;5050882;28;20025;-15
2022/11/05 13:58:34;;;;;;;1.10;0.43;;;28.90;27.90;;;;;;5051134;28;20049;-17
2022/11/05 14:01:24;;;;;;;0.40;0.38;;;28.90;28.20;;;;;;5050863;28;20036;-16
2022/11/05 14:03:54;;;;;;;1.40;0.63;;;28.80;28.50;;;;;;5051031;28;20028;-17
2022/11/05 14:06:30;;;;;;;0.40;0.40;;;28.70;29.10;;;;;;5050931;28;20104;-15